Time;durP1;ratioP1;P1;durP2;ratioP2;P2;SDS_P1;SDS_P2;PMS_P1;PMS_P2;Temp;Humidity;BMP_temperature;BMP_pressure;BME280_temperature;BME280_humidity;BME280_pressure;Samples;Min_cycle;Max_cycle;Signal;HPM_P1;HPM_P2
2022/08/17 00:02:04;;;;;;;13.20;7.40;;;19.40;35.90;;;;;;6127006;23;21001;-85
2022/08/17 00:04:31;;;;;;;12.97;9.57;;;19.30;34.80;;;;;;6127685;23;20440;-85
2022/08/17 00:06:58;;;;;;;13.30;8.30;;;19.30;37.00;;;;;;6128867;23;20753;-84
2022/08/17 00:09:26;;;;;;;17.93;9.20;;;19.30;38.30;;;;;;6127441;23;20422;-84
2022/08/17 00:11:52;;;;;;;12.90;9.67;;;19.10;38.20;;;;;;6126671;23;20443;-84
2022/08/17 00:14:19;;;;;;;15.50;8.70;;;19.00;37.30;;;;;;6126718;23;20527;-84
2022/08/17 00:16:48;;;;;;;12.07;9.20;;;19.00;38.80;;;;;;6126861;23;20454;-84
2022/08/17 00:19:17;;;;;;;12.10;10.00;;;19.10;40.00;;;;;;6136987;23;20883;-84
2022/08/17 00:21:46;;;;;;;18.23;8.23;;;18.90;40.80;;;;;;6126542;23;20416;-85
2022/08/17 00:24:14;;;;;;;12.50;9.00;;;18.90;40.70;;;;;;6126080;23;20435;-85
2022/08/17 00:26:42;;;;;;;12.80;10.00;;;18.80;42.30;;;;;;6135916;23;20417;-84
2022/08/17 00:29:09;;;;;;;13.17;10.43;;;18.80;41.70;;;;;;6136362;23;20440;-84
2022/08/17 00:31:36;;;;;;;12.30;10.47;;;18.70;41.90;;;;;;6127116;23;21079;-84
2022/08/17 00:34:04;;;;;;;15.47;11.03;;;18.70;42.70;;;;;;6135368;23;20436;-84
2022/08/17 00:36:32;;;;;;;15.73;11.07;;;18.70;43.10;;;;;;6126578;23;20436;-84
2022/08/17 00:38:58;;;;;;;15.00;11.60;;;18.60;43.10;;;;;;6126521;23;20415;-84
2022/08/17 00:41:27;;;;;;;13.00;9.10;;;18.60;43.00;;;;;;6127934;23;20761;-84
2022/08/17 00:43:57;;;;;;;15.00;10.60;;;18.70;43.10;;;;;;6135628;23;20448;-84
2022/08/17 00:46:27;;;;;;;11.87;10.20;;;18.50;43.30;;;;;;6126795;23;20747;-85
2022/08/17 00:48:55;;;;;;;10.70;9.23;;;18.50;43.00;;;;;;6126850;23;20459;-84
2022/08/17 00:51:29;;;;;;;15.83;10.80;;;18.60;43.80;;;;;;6128801;23;20458;-84
2022/08/17 00:54:01;;;;;;;24.47;10.20;;;18.60;44.50;;;;;;6127778;23;20473;-84
2022/08/17 00:56:33;;;;;;;14.83;10.03;;;18.50;45.20;;;;;;6126926;23;20430;-84
2022/08/17 00:59:03;;;;;;;14.17;10.10;;;18.50;45.20;;;;;;6127313;23;20402;-84
2022/08/17 01:01:31;;;;;;;12.87;10.20;;;18.60;46.00;;;;;;6126927;23;20498;-84
2022/08/17 01:03:58;;;;;;;12.63;9.37;;;18.60;46.50;;;;;;6125670;23;20846;-85
2022/08/17 01:06:25;;;;;;;14.70;9.63;;;18.40;46.80;;;;;;6126082;23;20420;-84
2022/08/17 01:08:55;;;;;;;12.70;10.47;;;18.40;47.20;;;;;;6126170;23;20428;-84
2022/08/17 01:11:22;;;;;;;13.73;10.93;;;18.50;46.00;;;;;;6136969;23;20807;-84
2022/08/17 01:13:49;;;;;;;13.80;11.37;;;18.40;47.00;;;;;;6125866;23;20518;-84
2022/08/17 01:16:22;;;;;;;17.93;11.77;;;18.30;47.10;;;;;;6125714;23;20441;-84
2022/08/17 01:18:51;;;;;;;16.30;13.07;;;18.20;47.80;;;;;;6126757;23;20402;-84
2022/08/17 01:21:27;;;;;;;19.07;12.30;;;18.10;49.60;;;;;;6126581;23;20410;-86
2022/08/17 01:23:55;;;;;;;17.30;11.80;;;18.10;51.20;;;;;;6136239;23;20445;-83
2022/08/17 01:26:23;;;;;;;20.23;14.80;;;18.10;51.40;;;;;;6126893;23;20417;-84
2022/08/17 01:28:50;;;;;;;21.33;13.10;;;17.90;51.10;;;;;;6126520;23;20418;-84
2022/08/17 01:31:17;;;;;;;18.57;11.53;;;17.80;51.20;;;;;;6136585;23;20405;-84
2022/08/17 01:33:44;;;;;;;19.03;11.47;;;17.80;50.70;;;;;;6126633;23;20445;-84
2022/08/17 01:36:11;;;;;;;17.87;12.33;;;17.80;51.20;;;;;;6135436;23;20435;-86
2022/08/17 01:38:39;;;;;;;15.40;12.43;;;17.80;51.20;;;;;;6126361;23;20422;-84
2022/08/17 01:41:11;;;;;;;21.70;12.47;;;17.90;51.30;;;;;;6126123;23;20512;-84
2022/08/17 01:43:44;;;;;;;18.47;13.63;;;17.70;51.10;;;;;;6126121;23;20442;-84
2022/08/17 01:46:16;;;;;;;16.00;12.63;;;17.80;51.20;;;;;;6135716;23;20895;-84
2022/08/17 01:48:46;;;;;;;19.60;15.77;;;17.60;51.00;;;;;;6136393;23;20395;-84
2022/08/17 01:51:14;;;;;;;15.47;13.00;;;17.50;51.70;;;;;;6126711;23;20411;-84
2022/08/17 01:53:44;;;;;;;16.90;12.40;;;17.60;53.00;;;;;;6127702;23;20817;-84
2022/08/17 01:56:15;;;;;;;16.87;12.43;;;17.50;53.00;;;;;;6128535;23;20442;-84
2022/08/17 01:58:42;;;;;;;17.90;13.67;;;17.50;54.40;;;;;;6128756;23;20401;-85
2022/08/17 02:01:13;;;;;;;24.83;13.83;;;17.40;54.80;;;;;;6128529;23;20418;-84
2022/08/17 02:03:41;;;;;;;17.80;13.53;;;17.50;54.90;;;;;;6138117;23;20432;-84
2022/08/17 02:06:08;;;;;;;16.00;12.50;;;17.40;53.00;;;;;;6127617;23;20414;-84
2022/08/17 02:08:35;;;;;;;15.00;11.40;;;17.30;50.70;;;;;;6137466;23;20421;-85
2022/08/17 02:11:02;;;;;;;14.87;11.83;;;17.20;50.60;;;;;;6127426;23;20939;-84
2022/08/17 02:13:32;;;;;;;15.77;12.10;;;17.10;50.90;;;;;;6127174;23;20454;-84
2022/08/17 02:15:59;;;;;;;18.17;12.53;;;17.10;53.50;;;;;;6137006;23;20452;-84
2022/08/17 02:18:27;;;;;;;16.33;12.70;;;17.10;53.20;;;;;;6127632;23;20430;-84
2022/08/17 02:20:54;;;;;;;18.90;12.80;;;17.10;55.00;;;;;;6128578;23;20421;-84
2022/08/17 02:23:24;;;;;;;20.60;14.20;;;17.20;61.20;;;;;;6128813;23;20504;-84
2022/08/17 02:25:51;;;;;;;20.63;12.40;;;17.30;61.20;;;;;;6127622;23;20419;-84
2022/08/17 02:28:18;;;;;;;16.30;13.80;;;17.30;58.00;;;;;;6127836;23;20416;-84
2022/08/17 02:30:47;;;;;;;16.53;12.10;;;17.40;54.10;;;;;;6127605;23;20417;-84
2022/08/17 02:33:13;;;;;;;16.73;12.70;;;17.20;55.10;;;;;;6127311;23;20446;-84
2022/08/17 02:35:41;;;;;;;19.60;12.97;;;17.20;56.80;;;;;;6127238;23;20422;-84
2022/08/17 02:38:09;;;;;;;21.43;13.70;;;17.20;59.30;;;;;;6128668;23;20440;-84
2022/08/17 02:40:39;;;;;;;17.60;12.50;;;17.30;59.40;;;;;;6127596;23;20420;-84
2022/08/17 02:43:07;;;;;;;20.33;14.10;;;17.30;59.80;;;;;;6127430;23;20433;-84
2022/08/17 02:45:34;;;;;;;17.23;12.67;;;17.60;61.00;;;;;;6128072;23;20418;-84
2022/08/17 02:48:04;;;;;;;16.47;13.07;;;17.50;61.30;;;;;;6128381;23;20943;-84
2022/08/17 02:50:31;;;;;;;14.87;12.53;;;17.50;61.60;;;;;;6127309;23;20503;-85
2022/08/17 02:52:58;;;;;;;20.87;13.23;;;17.60;61.80;;;;;;6136433;23;20411;-84
2022/08/17 02:55:27;;;;;;;16.93;13.00;;;17.50;61.20;;;;;;6128006;23;20424;-84
2022/08/17 02:57:54;;;;;;;19.63;13.50;;;17.50;61.30;;;;;;6136526;23;20441;-84
2022/08/17 03:00:24;;;;;;;15.40;12.10;;;17.50;61.80;;;;;;6127027;23;20806;-84
2022/08/17 03:02:52;;;;;;;18.90;12.90;;;17.60;62.60;;;;;;6127442;23;20422;-84
2022/08/17 03:05:25;;;;;;;16.37;13.07;;;17.50;63.10;;;;;;6126521;23;20421;-85
2022/08/17 03:07:52;;;;;;;15.70;11.80;;;17.50;62.40;;;;;;6126526;23;20409;-85
2022/08/17 03:10:20;;;;;;;17.30;12.40;;;17.50;63.00;;;;;;6127463;23;20415;-84
2022/08/17 03:12:48;;;;;;;14.23;12.53;;;17.50;62.20;;;;;;6127520;23;20419;-84
2022/08/17 03:15:19;;;;;;;16.90;12.53;;;17.50;61.80;;;;;;6126838;23;20429;-84
2022/08/17 03:17:46;;;;;;;14.03;11.07;;;17.60;61.40;;;;;;6128063;23;20785;-84
2022/08/17 03:20:14;;;;;;;14.50;12.20;;;17.80;61.00;;;;;;6126732;23;20420;-84
2022/08/17 03:22:45;;;;;;;19.90;12.13;;;17.70;60.60;;;;;;6126374;23;20487;-84
2022/08/17 03:25:15;;;;;;;21.03;11.40;;;17.70;60.40;;;;;;6126843;23;21005;-85
2022/08/17 03:27:46;;;;;;;17.80;12.03;;;17.90;59.90;;;;;;6137511;23;20497;-85
2022/08/17 03:30:16;;;;;;;12.63;9.90;;;17.80;59.80;;;;;;6137168;23;20889;-86
2022/08/17 03:32:47;;;;;;;14.23;10.23;;;17.90;59.90;;;;;;6136938;23;20422;-87
2022/08/17 03:35:17;;;;;;;14.43;11.10;;;17.80;59.10;;;;;;6127125;23;20519;-85
2022/08/17 03:37:45;;;;;;;19.73;12.20;;;17.70;59.80;;;;;;6137021;23;20476;-85
2022/08/17 03:40:15;;;;;;;14.23;10.00;;;17.70;61.30;;;;;;6129299;23;20489;-85
2022/08/17 03:42:43;;;;;;;14.40;10.83;;;17.70;60.60;;;;;;6128321;23;20784;-85
2022/08/17 03:45:14;;;;;;;13.90;10.10;;;17.60;59.60;;;;;;6126704;23;20434;-85
2022/08/17 03:58:52;;;;;;;11.77;8.30;;;17.70;59.20;;;;;;6125618;23;20433;-86
2022/08/17 04:01:18;;;;;;;12.93;8.53;;;17.70;58.00;;;;;;6136769;23;20398;-85
2022/08/17 04:03:45;;;;;;;13.80;9.13;;;17.80;58.60;;;;;;6136798;23;20438;-84
2022/08/17 04:06:14;;;;;;;13.60;9.73;;;17.80;58.30;;;;;;6125978;23;20421;-84
2022/08/17 04:08:42;;;;;;;19.20;9.60;;;17.80;58.40;;;;;;6126187;23;20474;-86
2022/08/17 04:11:09;;;;;;;11.73;8.90;;;17.70;58.80;;;;;;6126871;23;20515;-86
2022/08/17 04:13:36;;;;;;;12.30;9.07;;;17.60;59.00;;;;;;6136598;23;20515;-84
2022/08/17 04:16:03;;;;;;;13.93;8.57;;;17.70;59.70;;;;;;6125996;23;20403;-85
2022/08/17 04:18:30;;;;;;;11.30;8.90;;;17.60;59.60;;;;;;6126119;23;20468;-85
2022/08/17 04:20:57;;;;;;;12.90;9.20;;;17.70;59.80;;;;;;6126069;23;20418;-84
2022/08/17 04:23:27;;;;;;;12.20;7.87;;;17.90;59.90;;;;;;6125640;23;20953;-85
2022/08/17 04:25:55;;;;;;;11.80;8.40;;;18.10;58.90;;;;;;6135411;23;20485;-86
2022/08/17 04:28:21;;;;;;;10.60;6.80;;;18.10;57.70;;;;;;6135681;23;20413;-87
2022/08/17 04:30:48;;;;;;;13.80;8.23;;;18.20;57.10;;;;;;6136718;23;20414;-87
2022/08/17 04:33:18;;;;;;;11.37;8.23;;;18.10;56.80;;;;;;6131966;23;20429;-85
2022/08/17 04:35:50;;;;;;;11.53;7.53;;;18.30;55.90;;;;;;6132635;23;20417;-87
2022/08/17 04:38:20;;;;;;;15.60;8.70;;;18.30;56.00;;;;;;6138818;23;20948;-86
2022/08/17 04:43:34;;;;;;;10.47;8.43;;;18.40;55.70;;;;;;6150497;23;20458;-87
2022/08/17 04:46:03;;;;;;;12.90;8.10;;;18.40;55.80;;;;;;6139917;23;20434;-86
2022/08/17 04:48:32;;;;;;;10.97;7.07;;;18.50;55.60;;;;;;6140273;23;20408;-86
2022/08/17 04:50:59;;;;;;;9.47;7.60;;;18.70;56.00;;;;;;6141996;23;20420;-87
2022/08/17 04:53:26;;;;;;;10.40;7.73;;;18.50;55.50;;;;;;6139067;23;20435;-86
2022/08/17 04:55:56;;;;;;;14.77;7.57;;;18.60;55.50;;;;;;6133770;23;20417;-82
2022/08/17 04:58:22;;;;;;;9.90;6.03;;;18.70;54.20;;;;;;6128691;23;20444;-83
2022/08/17 05:00:50;;;;;;;11.43;6.43;;;18.60;52.00;;;;;;6129253;23;20426;-83
2022/08/17 05:03:17;;;;;;;9.90;6.73;;;18.70;52.00;;;;;;6127713;23;20989;-83
2022/08/17 05:05:48;;;;;;;8.43;6.27;;;18.80;52.10;;;;;;6127825;23;20418;-83
2022/08/17 05:08:16;;;;;;;11.27;6.90;;;18.90;52.20;;;;;;6132250;23;20397;-83
2022/08/17 05:10:43;;;;;;;11.40;7.90;;;18.90;52.20;;;;;;6133558;23;20908;-84
2022/08/17 05:13:14;;;;;;;9.03;6.67;;;19.00;50.20;;;;;;6135314;23;20689;-83
2022/08/17 05:15:42;;;;;;;12.97;7.40;;;19.20;49.10;;;;;;6110504;23;20401;-84
2022/08/17 05:18:11;;;;;;;12.60;8.50;;;19.20;49.80;;;;;;6112095;23;20443;-84
2022/08/17 05:20:39;;;;;;;13.53;7.47;;;19.30;51.00;;;;;;6111302;23;20418;-84
2022/08/17 05:23:09;;;;;;;10.13;7.00;;;19.40;52.70;;;;;;6111809;23;20753;-83
2022/08/17 05:25:38;;;;;;;10.50;7.27;;;19.40;52.70;;;;;;6120657;23;20446;-84
2022/08/17 05:28:06;;;;;;;11.33;7.43;;;19.30;52.60;;;;;;6122632;23;20446;-84
2022/08/17 05:30:34;;;;;;;9.97;7.30;;;19.50;51.70;;;;;;6113608;23;20484;-84
2022/08/17 05:33:04;;;;;;;9.30;6.80;;;19.40;51.20;;;;;;6112448;23;20415;-83
2022/08/17 05:35:35;;;;;;;13.00;7.30;;;19.60;47.80;;;;;;6103407;23;20416;-82
2022/08/17 05:38:04;;;;;;;10.77;6.03;;;19.80;47.20;;;;;;6111639;23;20463;-82
2022/08/17 05:40:32;;;;;;;15.50;7.90;;;20.10;44.40;;;;;;6110560;23;20441;-82
2022/08/17 05:43:19;;;;;;;15.40;7.23;;;20.30;44.60;;;;;;6099034;23;20426;-82
2022/08/17 05:56:41;;;;;;;13.63;6.77;;;21.00;41.40;;;;;;5955261;23;20799;-86
2022/08/17 06:07:25;;;;;;;10.60;6.80;;;21.70;38.00;;;;;;5890989;24;20452;-86
2022/08/17 06:42:24;;;;;;;11.87;7.30;;;22.70;33.80;;;;;;5942544;23;20449;-81
2022/08/17 06:45:02;;;;;;;12.60;7.67;;;22.60;33.60;;;;;;6106484;23;20500;-81
2022/08/17 06:47:34;;;;;;;10.50;7.73;;;22.70;33.80;;;;;;6107799;23;20409;-79
2022/08/17 06:50:08;;;;;;;13.27;8.30;;;22.70;32.80;;;;;;6097402;23;20407;-80
2022/08/17 06:52:45;;;;;;;16.13;8.90;;;22.80;32.70;;;;;;6097261;23;20405;-80
2022/08/17 06:55:27;;;;;;;12.53;8.67;;;22.90;32.90;;;;;;6097010;23;20512;-85
2022/08/17 06:58:25;;;;;;;;;;;;;;;;;;;;;
2022/08/17 07:00:59;;;;;;;19.77;8.07;;;23.00;32.10;;;;;;6106754;23;20401;-85
2022/08/17 07:03:44;;;;;;;13.00;9.10;;;23.00;31.40;;;;;;6106844;23;20467;-85
2022/08/17 07:06:27;;;;;;;16.20;8.77;;;23.10;31.00;;;;;;6107733;23;20732;-85
2022/08/17 07:09:44;;;;;;;12.70;8.53;;;23.00;32.10;;;;;;6108990;23;20473;-84
2022/08/17 07:12:23;;;;;;;13.40;9.23;;;22.80;31.70;;;;;;5979435;24;20435;-84
2022/08/17 07:15:04;;;;;;;10.93;8.93;;;22.90;31.70;;;;;;6026241;23;21008;-83
2022/08/17 07:17:48;;;;;;;11.33;8.50;;;23.00;31.70;;;;;;6129118;23;20776;-83
2022/08/17 07:20:36;;;;;;;;;;;;;;;;;;;;;
2022/08/17 07:23:18;;;;;;;12.27;9.50;;;22.80;31.90;;;;;;6127282;23;20424;-84
2022/08/17 07:25:45;;;;;;;10.83;7.80;;;22.90;33.00;;;;;;6136920;23;20416;-84
2022/08/17 07:28:21;;;;;;;11.70;9.63;;;23.00;33.10;;;;;;6126643;23;20436;-85
2022/08/17 07:31:00;;;;;;;14.40;9.37;;;23.10;34.40;;;;;;6127500;23;20887;-85
2022/08/17 07:33:29;;;;;;;13.30;9.57;;;23.20;30.60;;;;;;6126387;23;20465;-85
2022/08/17 07:39:41;;;;;;;;;;;;;;;;;;;;;
2022/08/17 07:42:10;;;;;;;13.77;11.60;;;23.60;29.60;;;;;;6142647;23;20510;-85
2022/08/17 07:44:49;;;;;;;17.43;10.80;;;23.80;29.00;;;;;;6140720;23;20433;-85
2022/08/17 07:50:26;;;;;;;14.63;10.50;;;23.70;29.60;;;;;;6127914;23;20990;-86
2022/08/17 07:52:53;;;;;;;15.20;10.90;;;23.60;29.60;;;;;;6141446;23;20726;-87
2022/08/17 07:59:07;;;;;;;17.90;11.40;;;23.80;29.30;;;;;;5973417;23;20447;-87
2022/08/17 08:01:36;;;;;;;14.10;10.00;;;24.00;27.40;;;;;;6108054;23;20491;-86
2022/08/17 08:04:21;;;;;;;15.50;11.73;;;24.50;27.30;;;;;;6142713;23;20435;-86
2022/08/17 08:07:01;;;;;;;18.00;10.80;;;24.30;25.90;;;;;;6132504;23;20415;-84
2022/08/17 08:10:02;;;;;;;16.27;10.40;;;24.30;25.90;;;;;;6131853;23;20473;-85
2022/08/17 08:12:35;;;;;;;21.80;11.67;;;24.80;25.40;;;;;;6126437;23;20443;-84
2022/08/17 08:15:19;;;;;;;19.97;11.90;;;24.40;24.10;;;;;;6134673;23;20442;-86
2022/08/17 08:18:20;;;;;;;21.33;9.33;;;24.50;25.40;;;;;;6143331;23;20441;-87
2022/08/17 08:21:02;;;;;;;13.37;10.37;;;24.40;26.50;;;;;;6133354;23;20399;-85
2022/08/17 08:23:41;;;;;;;14.10;10.50;;;24.20;27.50;;;;;;6143181;23;20427;-86
2022/08/17 08:26:57;;;;;;;16.17;11.53;;;24.20;27.10;;;;;;6139608;23;20399;-87
2022/08/17 08:29:31;;;;;;;15.43;11.30;;;24.00;26.70;;;;;;6142927;23;20420;-84
2022/08/17 08:32:04;;;;;;;18.40;11.40;;;23.60;27.60;;;;;;6142254;23;20766;-85
2022/08/17 08:34:43;;;;;;;19.00;11.73;;;23.50;27.90;;;;;;6131414;23;20953;-86
2022/08/17 08:37:42;;;;;;;19.97;11.87;;;23.40;27.20;;;;;;6132683;23;20762;-85
2022/08/17 08:40:19;;;;;;;14.43;11.97;;;23.20;29.30;;;;;;6128601;23;20481;-84
2022/08/17 08:43:56;;;;;;;;;;;;;;;;;;;;;
2022/08/17 08:46:29;;;;;;;19.00;12.13;;;23.00;29.20;;;;;;5992200;24;20755;-85
2022/08/17 08:49:39;;;;;;;21.00;12.03;;;23.00;30.00;;;;;;6066318;23;20477;-86
2022/08/17 08:52:18;;;;;;;19.53;11.80;;;22.90;29.60;;;;;;6139154;23;20412;-87
2022/08/17 08:57:51;;;;;;;18.83;11.90;;;23.10;30.00;;;;;;6119956;23;20481;-85
2022/08/17 09:00:22;;;;;;;18.93;12.33;;;23.10;30.10;;;;;;6141087;23;20405;-85
2022/08/17 09:03:15;;;;;;;17.43;12.83;;;23.00;29.90;;;;;;6131798;23;20392;-85
2022/08/17 09:06:09;;;;;;;18.33;12.10;;;23.20;30.70;;;;;;6142610;23;20797;-86
2022/08/17 09:08:54;;;;;;;14.90;12.77;;;23.10;29.40;;;;;;6130311;23;20466;-85
2022/08/17 09:11:29;;;;;;;16.53;13.40;;;23.20;29.30;;;;;;6135012;23;20403;-86
2022/08/17 09:17:19;;;;;;;14.97;12.03;;;23.40;29.50;;;;;;6127602;23;20500;-85
2022/08/17 09:19:55;;;;;;;19.80;12.30;;;23.50;29.50;;;;;;6140153;23;20429;-83
2022/08/17 09:22:30;;;;;;;18.23;11.53;;;23.70;29.70;;;;;;6130907;23;20399;-83
2022/08/17 09:25:27;;;;;;;20.63;11.47;;;24.10;30.00;;;;;;6130562;23;20446;-85
2022/08/17 09:28:23;;;;;;;21.50;11.63;;;24.10;28.40;;;;;;6133091;23;20417;-86
2022/08/17 09:31:02;;;;;;;20.77;13.67;;;24.30;27.50;;;;;;6132485;23;20508;-88
2022/08/17 09:33:33;;;;;;;14.70;11.83;;;24.10;26.90;;;;;;6134210;23;20444;-85
2022/08/17 09:36:04;;;;;;;18.20;12.53;;;24.20;27.60;;;;;;6137117;23;20406;-86
2022/08/17 09:38:41;;;;;;;16.13;13.50;;;24.20;28.50;;;;;;6135453;23;20425;-86
2022/08/17 09:44:48;;;;;;;17.13;12.97;;;23.80;28.20;;;;;;6143538;23;20439;-87
2022/08/17 09:47:26;;;;;;;16.33;13.00;;;23.80;29.70;;;;;;6125760;23;20481;-87
2022/08/17 09:49:59;;;;;;;17.63;13.30;;;23.70;29.60;;;;;;6142299;23;20433;-86
2022/08/17 09:52:29;;;;;;;17.73;13.70;;;23.80;29.80;;;;;;6143118;23;20491;-86
2022/08/17 09:54:58;;;;;;;18.73;14.93;;;23.60;29.60;;;;;;6133780;23;20520;-85
2022/08/17 09:57:39;;;;;;;17.10;14.00;;;23.50;29.50;;;;;;6134995;23;20511;-84
2022/08/17 10:00:26;;;;;;;18.67;14.00;;;23.40;29.90;;;;;;6130112;23;20507;-86
2022/08/17 10:03:29;;;;;;;15.10;13.50;;;23.40;31.20;;;;;;6139026;23;20507;-86
2022/08/17 10:06:13;;;;;;;18.17;13.90;;;23.20;32.30;;;;;;6139129;23;20411;-86
2022/08/17 10:08:58;;;;;;;15.00;12.27;;;23.00;32.40;;;;;;6130549;23;20398;-87
2022/08/17 10:14:43;;;;;;;13.40;11.00;;;22.80;35.40;;;;;;6127717;23;20553;-86
2022/08/17 10:17:36;;;;;;;16.13;11.77;;;22.50;35.30;;;;;;6128284;23;20400;-86
2022/08/17 10:20:16;;;;;;;17.40;12.90;;;22.50;36.70;;;;;;6139416;23;20514;-86
2022/08/17 10:30:04;;;;;;;;;;;;;;;;;;;;;
2022/08/17 10:33:00;;;;;;;20.40;16.03;;;21.40;48.90;;;;;;6142892;23;20386;-87
2022/08/17 10:35:35;;;;;;;21.07;17.63;;;21.30;54.40;;;;;;6083528;23;20418;-87
2022/08/17 10:38:38;;;;;;;23.40;17.70;;;21.20;57.10;;;;;;6143710;23;20408;-86
2022/08/17 10:41:28;;;;;;;23.53;18.33;;;21.00;59.50;;;;;;6142572;23;20427;-85
2022/08/17 10:44:04;;;;;;;26.57;23.87;;;21.10;64.90;;;;;;6134646;23;20436;-83
2022/08/17 10:46:47;;;;;;;30.67;27.67;;;20.80;70.80;;;;;;6134607;23;20429;-84
2022/08/17 10:49:29;;;;;;;43.30;40.00;;;20.60;78.70;;;;;;6132050;23;20420;-84
2022/08/17 10:51:59;;;;;;;58.87;54.70;;;20.50;86.00;;;;;;6131443;23;20476;-85
2022/08/17 10:54:49;;;;;;;34.03;30.53;;;20.60;80.40;;;;;;6139937;23;20457;-85
2022/08/17 10:57:43;;;;;;;36.40;33.27;;;20.80;78.90;;;;;;6122695;23;20444;-82
2022/08/17 11:01:11;;;;;;;41.00;37.80;;;20.80;77.80;;;;;;6141314;23;20436;-84
2022/08/17 11:03:51;;;;;;;26.57;23.13;;;20.80;77.30;;;;;;6128365;23;20436;-82
2022/08/17 11:06:25;;;;;;;29.83;26.80;;;20.80;75.00;;;;;;6133765;23;20400;-83
2022/08/17 11:09:25;;;;;;;34.17;27.93;;;20.90;74.70;;;;;;6131478;23;20400;-84
2022/08/17 11:12:06;;;;;;;44.27;40.47;;;21.10;74.70;;;;;;6132389;23;20409;-85
2022/08/17 11:14:47;;;;;;;25.67;22.90;;;21.70;75.60;;;;;;6130040;23;20448;-84
2022/08/17 11:18:01;;;;;;;24.53;21.93;;;22.30;68.70;;;;;;6130860;23;20735;-84
2022/08/17 11:21:09;;;;;;;26.70;20.83;;;23.00;59.80;;;;;;6130322;23;20440;-84
2022/08/17 11:24:04;;;;;;;26.70;21.17;;;25.00;54.80;;;;;;6132540;23;20430;-84
2022/08/17 11:26:34;;;;;;;24.50;20.83;;;26.50;45.30;;;;;;6117992;23;20485;-84
2022/08/17 11:29:08;;;;;;;22.70;20.10;;;26.50;34.80;;;;;;6140149;23;20414;-84
2022/08/17 11:31:39;;;;;;;21.83;19.50;;;27.40;35.50;;;;;;6132647;23;20403;-85
2022/08/17 11:34:13;;;;;;;21.63;19.10;;;28.20;27.70;;;;;;6140134;23;20971;-84
2022/08/17 11:36:53;;;;;;;23.83;19.37;;;28.50;25.20;;;;;;6127278;23;20409;-85
2022/08/17 11:39:54;;;;;;;23.30;19.00;;;28.90;23.40;;;;;;6138908;23;20429;-84
2022/08/17 11:42:37;;;;;;;20.87;18.63;;;28.50;22.90;;;;;;6128455;23;20392;-85
2022/08/17 11:45:25;;;;;;;21.43;17.60;;;28.70;20.50;;;;;;6140993;23;20434;-85
2022/08/17 11:54:08;;;;;;;22.20;19.00;;;26.50;25.80;;;;;;6132018;23;20469;-84
2022/08/17 11:56:40;;;;;;;26.87;19.43;;;26.80;26.20;;;;;;6132141;23;20434;-84
2022/08/17 11:59:44;;;;;;;24.73;19.30;;;26.90;25.10;;;;;;6132026;23;20784;-84
2022/08/17 12:02:33;;;;;;;26.60;21.23;;;26.40;27.20;;;;;;6132629;23;20410;-84
2022/08/17 12:05:10;;;;;;;24.47;20.40;;;26.40;28.00;;;;;;6141550;23;20431;-84
2022/08/17 12:07:41;;;;;;;23.30;20.60;;;26.10;28.70;;;;;;6130027;23;20791;-84
2022/08/17 12:10:11;;;;;;;26.60;21.40;;;25.60;29.30;;;;;;6142833;23;20463;-85
2022/08/17 12:12:42;;;;;;;25.27;22.67;;;25.90;28.60;;;;;;6131899;23;20482;-84
2022/08/17 12:15:17;;;;;;;24.93;20.70;;;26.10;28.60;;;;;;6138050;23;20452;-84
2022/08/17 12:17:52;;;;;;;26.02;22.38;;;26.60;27.40;;;;;;6129917;23;20425;-84
2022/08/17 12:20:22;;;;;;;24.30;21.60;;;27.20;24.60;;;;;;6129577;23;20206;-84
2022/08/17 12:22:56;;;;;;;29.13;21.00;;;27.20;23.60;;;;;;6130100;23;20399;-84
2022/08/17 12:25:31;;;;;;;30.67;24.03;;;26.80;24.30;;;;;;6128771;23;20405;-84
2022/08/17 12:28:00;;;;;;;23.47;20.63;;;26.60;25.70;;;;;;6128567;23;20798;-83
2022/08/17 12:30:27;;;;;;;28.00;22.07;;;26.40;26.30;;;;;;6128965;23;20440;-84
2022/08/17 12:32:54;;;;;;;26.13;23.33;;;26.00;30.00;;;;;;6128609;23;20425;-84
2022/08/17 12:35:26;;;;;;;24.87;20.70;;;25.80;28.80;;;;;;6129620;23;20421;-84
2022/08/17 12:37:54;;;;;;;28.10;24.73;;;25.30;33.60;;;;;;6129084;23;20402;-84
2022/08/17 12:40:22;;;;;;;26.10;22.30;;;25.10;32.70;;;;;;6128387;23;20446;-83
2022/08/17 12:42:56;;;;;;;27.60;24.60;;;24.50;34.40;;;;;;6129021;23;20415;-84
2022/08/17 12:45:28;;;;;;;31.33;26.10;;;24.30;37.20;;;;;;6130136;23;20399;-84
2022/08/17 12:48:07;;;;;;;29.23;25.97;;;24.80;37.90;;;;;;6129251;23;20399;-84
2022/08/17 12:50:35;;;;;;;29.33;24.47;;;25.40;34.10;;;;;;6128758;23;20395;-82
2022/08/17 12:53:02;;;;;;;26.13;23.37;;;26.90;30.40;;;;;;6127426;23;20505;-84
2022/08/17 12:55:35;;;;;;;35.23;23.83;;;27.70;23.70;;;;;;6127756;23;20425;-83
2022/08/17 12:58:02;;;;;;;28.50;24.83;;;28.20;22.50;;;;;;6128634;23;20410;-84
2022/08/17 13:00:32;;;;;;;27.37;24.33;;;27.90;22.10;;;;;;6128846;23;20445;-84
2022/08/17 13:03:02;;;;;;;31.73;25.17;;;27.60;22.70;;;;;;6127793;23;20414;-84
2022/08/17 13:05:32;;;;;;;27.23;24.20;;;28.70;20.60;;;;;;6127527;23;20505;-84
2022/08/17 13:08:00;;;;;;;27.30;24.40;;;28.20;21.20;;;;;;6130041;23;20399;-84
2022/08/17 13:10:29;;;;;;;27.60;24.60;;;27.70;21.80;;;;;;6140497;23;20824;-84
2022/08/17 13:13:02;;;;;;;24.27;21.77;;;26.80;24.30;;;;;;6129154;23;20759;-84
2022/08/17 13:15:55;;;;;;;29.67;26.47;;;26.70;26.00;;;;;;6131246;23;20442;-84
2022/08/17 13:19:00;;;;;;;28.77;24.50;;;26.60;26.20;;;;;;6141296;23;20445;-85
2022/08/17 13:21:31;;;;;;;27.03;23.00;;;26.90;25.60;;;;;;6133321;23;21009;-84
2022/08/17 13:24:03;;;;;;;32.13;24.53;;;28.30;21.30;;;;;;6133541;23;21016;-84
2022/08/17 13:26:33;;;;;;;25.83;23.13;;;27.30;24.60;;;;;;6144995;23;20479;-84
2022/08/17 13:29:02;;;;;;;25.20;22.50;;;28.50;21.70;;;;;;6143452;23;20387;-85
2022/08/17 13:31:36;;;;;;;26.03;21.23;;;28.50;17.90;;;;;;6145125;23;20442;-86
2022/08/17 13:34:17;;;;;;;25.77;21.60;;;28.00;20.30;;;;;;6134344;23;20462;-83
2022/08/17 13:36:47;;;;;;;25.07;22.57;;;26.70;23.00;;;;;;6135125;23;20394;-85
2022/08/17 13:39:17;;;;;;;23.83;21.27;;;27.30;22.90;;;;;;6145613;23;20482;-85
2022/08/17 13:41:45;;;;;;;30.93;22.60;;;27.30;24.50;;;;;;6133975;23;20401;-85
2022/08/17 13:44:33;;;;;;;23.23;20.70;;;27.70;22.70;;;;;;6134668;23;20441;-84
2022/08/17 13:47:02;;;;;;;26.57;22.03;;;27.90;21.20;;;;;;6143011;23;20444;-84
2022/08/17 13:49:29;;;;;;;27.40;24.60;;;27.40;21.80;;;;;;6137234;23;20421;-84
2022/08/17 13:51:57;;;;;;;26.83;24.03;;;27.30;21.80;;;;;;6135482;23;20421;-84
2022/08/17 13:54:27;;;;;;;25.53;22.83;;;27.20;23.30;;;;;;6135796;23;20453;-84
2022/08/17 13:56:59;;;;;;;27.33;23.20;;;26.30;25.40;;;;;;6133957;23;20772;-83
2022/08/17 13:59:35;;;;;;;26.37;23.67;;;26.10;26.00;;;;;;6131950;23;20448;-82
2022/08/17 14:02:05;;;;;;;28.87;23.30;;;26.00;26.40;;;;;;6133342;23;20399;-84
2022/08/17 14:04:34;;;;;;;29.57;25.27;;;26.20;25.80;;;;;;6139303;23;20438;-84
2022/08/17 14:07:22;;;;;;;27.33;23.97;;;26.00;26.40;;;;;;6140815;23;20441;-82
2022/08/17 14:09:54;;;;;;;26.47;23.67;;;26.20;26.10;;;;;;6132092;23;20405;-83
2022/08/17 14:12:23;;;;;;;30.53;26.00;;;26.00;27.80;;;;;;6131219;23;20454;-84
2022/08/17 14:14:51;;;;;;;28.93;25.80;;;26.30;27.30;;;;;;6131206;23;20447;-84
2022/08/17 14:17:20;;;;;;;31.10;26.27;;;26.40;26.30;;;;;;6142292;23;20402;-83
2022/08/17 14:19:56;;;;;;;27.30;24.30;;;26.10;27.20;;;;;;6132011;23;20435;-84
2022/08/17 14:22:27;;;;;;;28.93;25.67;;;26.30;26.30;;;;;;6142186;23;20415;-85
2022/08/17 14:24:54;;;;;;;26.60;23.70;;;26.50;24.20;;;;;;6141461;23;20434;-84
2022/08/17 14:27:32;;;;;;;34.43;26.17;;;26.30;26.10;;;;;;6142685;23;20440;-85
2022/08/17 14:30:00;;;;;;;28.47;25.30;;;26.10;26.10;;;;;;6140313;23;20418;-84
2022/08/17 14:32:31;;;;;;;28.93;25.47;;;25.60;27.40;;;;;;6141551;23;20414;-84
2022/08/17 14:35:01;;;;;;;31.40;25.33;;;25.40;29.00;;;;;;6130882;23;20435;-84
2022/08/17 14:37:29;;;;;;;28.47;25.53;;;25.40;29.40;;;;;;6141512;23;20472;-84
2022/08/17 14:39:57;;;;;;;28.93;24.10;;;25.60;29.50;;;;;;6132214;23;20538;-84
2022/08/17 14:42:25;;;;;;;29.37;24.27;;;25.70;28.50;;;;;;6131013;23;20414;-84
2022/08/17 14:44:51;;;;;;;28.30;22.77;;;25.70;27.90;;;;;;6131411;23;20801;-83
2022/08/17 14:47:18;;;;;;;26.70;23.87;;;25.40;28.20;;;;;;6142093;23;20418;-84
2022/08/17 14:49:47;;;;;;;38.27;24.80;;;25.60;30.90;;;;;;6132525;23;20407;-84
2022/08/17 14:52:20;;;;;;;27.63;23.60;;;25.40;28.20;;;;;;6132256;23;20442;-83
2022/08/17 14:54:59;;;;;;;29.33;23.70;;;25.30;30.80;;;;;;6131993;23;20476;-85